20°C Temp
16°C Dewpoint
% Humidity
Temperature
24 KM/H
15 MPH
13 KTS
10°
Due North

Wind Speed
Partly Cloudy
Conditions
Pressure 1013.92 (hPa) - 29.94 (in)
Visibility 6.2 (mi) - 10.0 (km)

Current Conditions
YBBN
Location 15(km)
Metar :YBBN 141500Z 01013KT 9999 FEW027 BKN175 20/16 Q1014
Tue 15th October 01:00 am

Airport
  Metar Aviation API Data Provided by https://www.checkwx.com/ PHP scripts by weather34.com ©2019